sensor_id;sensor_type;location;lat;lon;timestamp;temperature;humidity
22364;DHT22;11349;53.412;-1.328;2022-08-19T00:01:26;19.70;47.60
22364;DHT22;11349;53.412;-1.328;2022-08-19T00:03:55;19.70;99.90
22364;DHT22;11349;53.412;-1.328;2022-08-19T00:06:21;19.90;1.00
22364;DHT22;11349;53.412;-1.328;2022-08-19T00:08:47;19.90;45.10
22364;DHT22;11349;53.412;-1.328;2022-08-19T00:11:13;20.00;78.30
22364;DHT22;11349;53.412;-1.328;2022-08-19T00:13:39;19.80;94.50
22364;DHT22;11349;53.412;-1.328;2022-08-19T00:16:05;19.70;22.00
22364;DHT22;11349;53.412;-1.328;2022-08-19T00:18:32;19.70;99.90
22364;DHT22;11349;53.412;-1.328;2022-08-19T00:20:59;19.60;50.10
22364;DHT22;11349;53.412;-1.328;2022-08-19T00:23:25;19.60;99.90
22364;DHT22;11349;53.412;-1.328;2022-08-19T00:25:51;19.50;99.90
22364;DHT22;11349;53.412;-1.328;2022-08-19T00:28:18;19.30;99.90
22364;DHT22;11349;53.412;-1.328;2022-08-19T00:30:44;19.20;99.90
22364;DHT22;11349;53.412;-1.328;2022-08-19T00:33:10;19.00;99.90
22364;DHT22;11349;53.412;-1.328;2022-08-19T00:35:36;18.90;99.90
22364;DHT22;11349;53.412;-1.328;2022-08-19T00:38:04;18.90;99.90
22364;DHT22;11349;53.412;-1.328;2022-08-19T00:40:32;18.90;99.90
22364;DHT22;11349;53.412;-1.328;2022-08-19T00:42:58;18.90;99.90
22364;DHT22;11349;53.412;-1.328;2022-08-19T00:45:28;18.80;99.90
22364;DHT22;11349;53.412;-1.328;2022-08-19T00:47:57;18.70;99.70
22364;DHT22;11349;53.412;-1.328;2022-08-19T00:50:23;18.70;51.10
22364;DHT22;11349;53.412;-1.328;2022-08-19T00:52:51;18.60;1.00
22364;DHT22;11349;53.412;-1.328;2022-08-19T00:55:22;18.50;1.00
22364;DHT22;11349;53.412;-1.328;2022-08-19T00:57:55;18.50;8.40
22364;DHT22;11349;53.412;-1.328;2022-08-19T01:00:23;18.40;10.00
22364;DHT22;11349;53.412;-1.328;2022-08-19T01:02:49;18.40;1.00
22364;DHT22;11349;53.412;-1.328;2022-08-19T01:05:23;18.20;1.00
22364;DHT22;11349;53.412;-1.328;2022-08-19T01:07:50;18.10;4.60
22364;DHT22;11349;53.412;-1.328;2022-08-19T01:10:20;18.10;6.80
22364;DHT22;11349;53.412;-1.328;2022-08-19T01:12:47;18.10;1.00
22364;DHT22;11349;53.412;-1.328;2022-08-19T01:15:16;18.10;1.00
22364;DHT22;11349;53.412;-1.328;2022-08-19T01:17:43;18.00;1.00
22364;DHT22;11349;53.412;-1.328;2022-08-19T01:20:15;18.00;1.00
22364;DHT22;11349;53.412;-1.328;2022-08-19T01:22:51;17.90;1.00
22364;DHT22;11349;53.412;-1.328;2022-08-19T01:25:23;18.00;1.00
22364;DHT22;11349;53.412;-1.328;2022-08-19T01:27:51;17.90;1.00
22364;DHT22;11349;53.412;-1.328;2022-08-19T01:30:21;17.90;1.00
22364;DHT22;11349;53.412;-1.328;2022-08-19T01:32:49;17.90;1.00
22364;DHT22;11349;53.412;-1.328;2022-08-19T01:35:15;17.80;1.00
22364;DHT22;11349;53.412;-1.328;2022-08-19T01:38:02;17.80;1.00
22364;DHT22;11349;53.412;-1.328;2022-08-19T01:40:30;17.80;1.00
22364;DHT22;11349;53.412;-1.328;2022-08-19T01:42:57;17.70;1.00
22364;DHT22;11349;53.412;-1.328;2022-08-19T01:45:25;17.60;1.00
22364;DHT22;11349;53.412;-1.328;2022-08-19T01:47:51;17.70;1.00
22364;DHT22;11349;53.412;-1.328;2022-08-19T01:50:17;17.70;1.00
22364;DHT22;11349;53.412;-1.328;2022-08-19T01:52:44;17.70;1.00
22364;DHT22;11349;53.412;-1.328;2022-08-19T01:55:15;17.70;1.00
22364;DHT22;11349;53.412;-1.328;2022-08-19T01:57:44;17.70;1.00
22364;DHT22;11349;53.412;-1.328;2022-08-19T02:00:13;17.60;1.00
22364;DHT22;11349;53.412;-1.328;2022-08-19T02:02:41;17.50;1.00
22364;DHT22;11349;53.412;-1.328;2022-08-19T02:05:08;17.50;1.00
22364;DHT22;11349;53.412;-1.328;2022-08-19T02:07:35;17.50;1.00
22364;DHT22;11349;53.412;-1.328;2022-08-19T02:10:07;17.40;11.10
22364;DHT22;11349;53.412;-1.328;2022-08-19T02:12:33;17.40;1.00
22364;DHT22;11349;53.412;-1.328;2022-08-19T02:14:59;17.30;1.00
22364;DHT22;11349;53.412;-1.328;2022-08-19T02:17:26;17.20;1.00
22364;DHT22;11349;53.412;-1.328;2022-08-19T02:19:55;17.20;1.00
22364;DHT22;11349;53.412;-1.328;2022-08-19T02:22:22;17.10;1.00
22364;DHT22;11349;53.412;-1.328;2022-08-19T02:24:48;17.10;1.00
22364;DHT22;11349;53.412;-1.328;2022-08-19T02:27:14;17.00;1.00
22364;DHT22;11349;53.412;-1.328;2022-08-19T02:29:40;17.00;1.00
22364;DHT22;11349;53.412;-1.328;2022-08-19T02:32:07;16.90;1.00
22364;DHT22;11349;53.412;-1.328;2022-08-19T02:34:33;16.80;1.00
22364;DHT22;11349;53.412;-1.328;2022-08-19T02:37:00;16.90;1.00
22364;DHT22;11349;53.412;-1.328;2022-08-19T02:39:26;16.80;1.00
22364;DHT22;11349;53.412;-1.328;2022-08-19T02:41:52;16.70;1.00
22364;DHT22;11349;53.412;-1.328;2022-08-19T02:44:18;16.70;1.00
22364;DHT22;11349;53.412;-1.328;2022-08-19T02:46:46;16.60;1.00
22364;DHT22;11349;53.412;-1.328;2022-08-19T02:49:12;16.60;1.00
22364;DHT22;11349;53.412;-1.328;2022-08-19T02:51:41;16.50;1.00
22364;DHT22;11349;53.412;-1.328;2022-08-19T02:54:09;16.50;1.00
22364;DHT22;11349;53.412;-1.328;2022-08-19T02:56:36;16.50;3.50
22364;DHT22;11349;53.412;-1.328;2022-08-19T02:59:04;16.40;14.20
22364;DHT22;11349;53.412;-1.328;2022-08-19T03:01:36;16.40;17.20
22364;DHT22;11349;53.412;-1.328;2022-08-19T03:04:07;16.30;21.10
22364;DHT22;11349;53.412;-1.328;2022-08-19T03:06:36;16.40;29.20
22364;DHT22;11349;53.412;-1.328;2022-08-19T03:09:02;16.40;28.80
22364;DHT22;11349;53.412;-1.328;2022-08-19T03:11:31;16.30;26.90
22364;DHT22;11349;53.412;-1.328;2022-08-19T03:13:57;16.30;30.50
22364;DHT22;11349;53.412;-1.328;2022-08-19T03:16:26;16.20;49.00
22364;DHT22;11349;53.412;-1.328;2022-08-19T03:18:53;16.20;52.30
22364;DHT22;11349;53.412;-1.328;2022-08-19T03:21:21;16.20;43.40
22364;DHT22;11349;53.412;-1.328;2022-08-19T03:23:49;16.10;32.20
22364;DHT22;11349;53.412;-1.328;2022-08-19T03:26:15;16.20;53.90
22364;DHT22;11349;53.412;-1.328;2022-08-19T03:28:42;16.20;47.20
22364;DHT22;11349;53.412;-1.328;2022-08-19T03:31:11;16.40;19.10
22364;DHT22;11349;53.412;-1.328;2022-08-19T03:33:37;16.40;1.00
22364;DHT22;11349;53.412;-1.328;2022-08-19T03:36:06;16.20;1.00
22364;DHT22;11349;53.412;-1.328;2022-08-19T03:38:35;16.20;1.00
22364;DHT22;11349;53.412;-1.328;2022-08-19T03:41:08;16.40;1.10
22364;DHT22;11349;53.412;-1.328;2022-08-19T03:43:36;16.40;1.00
22364;DHT22;11349;53.412;-1.328;2022-08-19T03:46:05;16.80;1.00
22364;DHT22;11349;53.412;-1.328;2022-08-19T03:48:33;16.70;1.00
22364;DHT22;11349;53.412;-1.328;2022-08-19T03:51:00;16.50;1.00
22364;DHT22;11349;53.412;-1.328;2022-08-19T03:53:29;16.40;1.00
22364;DHT22;11349;53.412;-1.328;2022-08-19T03:55:56;16.30;1.00
22364;DHT22;11349;53.412;-1.328;2022-08-19T03:58:25;16.10;1.00
22364;DHT22;11349;53.412;-1.328;2022-08-19T04:00:51;16.10;1.00
22364;DHT22;11349;53.412;-1.328;2022-08-19T04:03:17;16.00;1.00
22364;DHT22;11349;53.412;-1.328;2022-08-19T04:05:44;15.90;14.50
22364;DHT22;11349;53.412;-1.328;2022-08-19T04:08:11;15.80;3.00
22364;DHT22;11349;53.412;-1.328;2022-08-19T04:10:37;15.80;23.00
22364;DHT22;11349;53.412;-1.328;2022-08-19T04:13:04;15.60;30.70
22364;DHT22;11349;53.412;-1.328;2022-08-19T04:15:32;15.60;31.60
22364;DHT22;11349;53.412;-1.328;2022-08-19T04:18:04;15.60;23.90
22364;DHT22;11349;53.412;-1.328;2022-08-19T04:20:31;15.50;25.00
22364;DHT22;11349;53.412;-1.328;2022-08-19T04:22:57;15.50;26.00
22364;DHT22;11349;53.412;-1.328;2022-08-19T04:25:23;15.50;19.80
22364;DHT22;11349;53.412;-1.328;2022-08-19T04:27:48;15.50;14.20
22364;DHT22;11349;53.412;-1.328;2022-08-19T04:30:14;15.40;20.90
22364;DHT22;11349;53.412;-1.328;2022-08-19T04:32:41;15.40;34.30
22364;DHT22;11349;53.412;-1.328;2022-08-19T04:35:09;15.30;48.30
22364;DHT22;11349;53.412;-1.328;2022-08-19T04:37:34;15.30;35.40
22364;DHT22;11349;53.412;-1.328;2022-08-19T04:40:00;15.20;36.10
22364;DHT22;11349;53.412;-1.328;2022-08-19T04:42:44;15.30;34.70
22364;DHT22;11349;53.412;-1.328;2022-08-19T04:45:13;15.30;35.90
22364;DHT22;11349;53.412;-1.328;2022-08-19T04:47:41;15.30;38.60
22364;DHT22;11349;53.412;-1.328;2022-08-19T04:50:09;15.30;41.90
22364;DHT22;11349;53.412;-1.328;2022-08-19T04:52:37;15.30;42.80
22364;DHT22;11349;53.412;-1.328;2022-08-19T04:55:10;15.20;46.80
22364;DHT22;11349;53.412;-1.328;2022-08-19T04:57:36;15.20;44.50
22364;DHT22;11349;53.412;-1.328;2022-08-19T05:00:07;15.20;48.00
22364;DHT22;11349;53.412;-1.328;2022-08-19T05:02:33;15.20;52.30
22364;DHT22;11349;53.412;-1.328;2022-08-19T05:04:59;15.10;55.30
22364;DHT22;11349;53.412;-1.328;2022-08-19T05:07:26;15.20;55.40
22364;DHT22;11349;53.412;-1.328;2022-08-19T05:09:52;15.10;53.60
22364;DHT22;11349;53.412;-1.328;2022-08-19T05:12:18;15.00;58.70
22364;DHT22;11349;53.412;-1.328;2022-08-19T05:14:45;15.00;59.50
22364;DHT22;11349;53.412;-1.328;2022-08-19T05:17:13;15.00;50.10
22364;DHT22;11349;53.412;-1.328;2022-08-19T05:19:38;15.00;62.20
22364;DHT22;11349;53.412;-1.328;2022-08-19T05:22:23;15.00;61.10
22364;DHT22;11349;53.412;-1.328;2022-08-19T05:24:58;14.90;76.20
22364;DHT22;11349;53.412;-1.328;2022-08-19T05:27:24;14.90;71.00
22364;DHT22;11349;53.412;-1.328;2022-08-19T05:29:50;14.90;80.60
22364;DHT22;11349;53.412;-1.328;2022-08-19T05:32:15;14.90;89.80
22364;DHT22;11349;53.412;-1.328;2022-08-19T05:34:41;14.90;74.90
22364;DHT22;11349;53.412;-1.328;2022-08-19T05:37:07;14.90;75.10
22364;DHT22;11349;53.412;-1.328;2022-08-19T05:39:36;14.90;67.00
22364;DHT22;11349;53.412;-1.328;2022-08-19T05:42:05;14.90;64.90
22364;DHT22;11349;53.412;-1.328;2022-08-19T05:44:35;14.90;76.50
22364;DHT22;11349;53.412;-1.328;2022-08-19T05:47:03;14.90;94.50
22364;DHT22;11349;53.412;-1.328;2022-08-19T05:49:30;14.90;96.90
22364;DHT22;11349;53.412;-1.328;2022-08-19T05:51:57;14.90;94.60
22364;DHT22;11349;53.412;-1.328;2022-08-19T05:54:24;14.90;95.30
22364;DHT22;11349;53.412;-1.328;2022-08-19T05:56:51;15.00;99.60
22364;DHT22;11349;53.412;-1.328;2022-08-19T05:59:18;15.00;92.80
22364;DHT22;11349;53.412;-1.328;2022-08-19T06:01:48;15.00;95.20
22364;DHT22;11349;53.412;-1.328;2022-08-19T06:04:18;15.00;94.80
22364;DHT22;11349;53.412;-1.328;2022-08-19T06:06:49;15.00;94.20
22364;DHT22;11349;53.412;-1.328;2022-08-19T06:09:18;15.10;87.20
22364;DHT22;11349;53.412;-1.328;2022-08-19T06:11:47;15.10;70.40
22364;DHT22;11349;53.412;-1.328;2022-08-19T06:14:15;15.20;49.80
22364;DHT22;11349;53.412;-1.328;2022-08-19T06:16:42;15.20;47.30
22364;DHT22;11349;53.412;-1.328;2022-08-19T06:19:12;15.40;28.40
22364;DHT22;11349;53.412;-1.328;2022-08-19T06:21:40;15.40;19.80
22364;DHT22;11349;53.412;-1.328;2022-08-19T06:24:08;15.60;10.80
22364;DHT22;11349;53.412;-1.328;2022-08-19T06:26:36;15.50;13.70
22364;DHT22;11349;53.412;-1.328;2022-08-19T06:29:04;15.50;21.00
22364;DHT22;11349;53.412;-1.328;2022-08-19T06:31:33;15.50;18.50
22364;DHT22;11349;53.412;-1.328;2022-08-19T06:34:04;15.60;19.50
22364;DHT22;11349;53.412;-1.328;2022-08-19T06:36:36;15.60;10.60
22364;DHT22;11349;53.412;-1.328;2022-08-19T06:39:07;15.80;1.00
22364;DHT22;11349;53.412;-1.328;2022-08-19T06:41:41;16.00;1.00
22364;DHT22;11349;53.412;-1.328;2022-08-19T06:44:07;15.90;1.00
22364;DHT22;11349;53.412;-1.328;2022-08-19T06:46:34;15.80;1.00
22364;DHT22;11349;53.412;-1.328;2022-08-19T06:49:00;16.00;99.90
22364;DHT22;11349;53.412;-1.328;2022-08-19T06:51:26;16.10;99.90
22364;DHT22;11349;53.412;-1.328;2022-08-19T06:53:54;16.40;99.90
22364;DHT22;11349;53.412;-1.328;2022-08-19T06:56:23;16.80;99.90
22364;DHT22;11349;53.412;-1.328;2022-08-19T06:58:50;17.20;99.90
22364;DHT22;11349;53.412;-1.328;2022-08-19T07:01:19;17.70;99.90
22364;DHT22;11349;53.412;-1.328;2022-08-19T07:03:46;18.30;99.90
22364;DHT22;11349;53.412;-1.328;2022-08-19T07:06:15;18.70;99.90
22364;DHT22;11349;53.412;-1.328;2022-08-19T07:08:44;19.30;99.90
22364;DHT22;11349;53.412;-1.328;2022-08-19T07:11:14;20.00;99.90
22364;DHT22;11349;53.412;-1.328;2022-08-19T07:13:41;20.50;99.90
22364;DHT22;11349;53.412;-1.328;2022-08-19T07:16:13;20.30;99.90
22364;DHT22;11349;53.412;-1.328;2022-08-19T07:18:40;20.40;99.90
22364;DHT22;11349;53.412;-1.328;2022-08-19T07:21:11;20.80;99.90
22364;DHT22;11349;53.412;-1.328;2022-08-19T07:23:37;21.40;99.90
22364;DHT22;11349;53.412;-1.328;2022-08-19T07:26:14;22.10;99.90
22364;DHT22;11349;53.412;-1.328;2022-08-19T07:28:40;22.40;99.90
22364;DHT22;11349;53.412;-1.328;2022-08-19T07:31:11;22.50;99.90
22364;DHT22;11349;53.412;-1.328;2022-08-19T07:33:39;22.80;99.90
22364;DHT22;11349;53.412;-1.328;2022-08-19T07:36:08;23.30;99.90
22364;DHT22;11349;53.412;-1.328;2022-08-19T07:38:38;23.50;99.90
22364;DHT22;11349;53.412;-1.328;2022-08-19T07:41:05;23.90;99.90
22364;DHT22;11349;53.412;-1.328;2022-08-19T07:43:31;24.40;99.90
22364;DHT22;11349;53.412;-1.328;2022-08-19T07:45:58;24.40;99.90
22364;DHT22;11349;53.412;-1.328;2022-08-19T07:48:27;24.80;99.90
22364;DHT22;11349;53.412;-1.328;2022-08-19T07:50:58;24.80;99.90
22364;DHT22;11349;53.412;-1.328;2022-08-19T07:53:28;25.30;99.90
22364;DHT22;11349;53.412;-1.328;2022-08-19T07:55:56;25.30;99.90
22364;DHT22;11349;53.412;-1.328;2022-08-19T07:58:32;25.10;99.90
22364;DHT22;11349;53.412;-1.328;2022-08-19T08:01:00;25.20;99.90
22364;DHT22;11349;53.412;-1.328;2022-08-19T08:03:27;24.90;99.90
22364;DHT22;11349;53.412;-1.328;2022-08-19T08:06:29;24.90;99.90
22364;DHT22;11349;53.412;-1.328;2022-08-19T08:09:17;25.30;99.90
22364;DHT22;11349;53.412;-1.328;2022-08-19T08:14:52;25.30;99.90
22364;DHT22;11349;53.412;-1.328;2022-08-19T08:17:20;25.30;99.90
22364;DHT22;11349;53.412;-1.328;2022-08-19T08:19:48;26.20;99.90
22364;DHT22;11349;53.412;-1.328;2022-08-19T08:22:17;26.10;99.90
22364;DHT22;11349;53.412;-1.328;2022-08-19T08:25:09;25.10;99.90
22364;DHT22;11349;53.412;-1.328;2022-08-19T08:27:37;25.50;99.90
22364;DHT22;11349;53.412;-1.328;2022-08-19T08:30:11;25.00;99.90
22364;DHT22;11349;53.412;-1.328;2022-08-19T08:32:39;25.00;99.90
22364;DHT22;11349;53.412;-1.328;2022-08-19T08:35:09;25.20;99.90
22364;DHT22;11349;53.412;-1.328;2022-08-19T08:37:36;24.40;99.90
22364;DHT22;11349;53.412;-1.328;2022-08-19T08:40:07;24.50;99.90
22364;DHT22;11349;53.412;-1.328;2022-08-19T08:42:39;24.60;99.90
22364;DHT22;11349;53.412;-1.328;2022-08-19T08:45:12;24.90;99.90
22364;DHT22;11349;53.412;-1.328;2022-08-19T08:47:44;25.10;99.90
22364;DHT22;11349;53.412;-1.328;2022-08-19T08:52:52;24.50;99.90
22364;DHT22;11349;53.412;-1.328;2022-08-19T08:55:28;23.90;99.90
22364;DHT22;11349;53.412;-1.328;2022-08-19T08:58:12;24.00;99.90
22364;DHT22;11349;53.412;-1.328;2022-08-19T09:00:45;24.00;99.90
22364;DHT22;11349;53.412;-1.328;2022-08-19T09:03:29;23.70;99.90
22364;DHT22;11349;53.412;-1.328;2022-08-19T09:06:14;23.70;99.90
22364;DHT22;11349;53.412;-1.328;2022-08-19T09:11:50;23.70;99.90
22364;DHT22;11349;53.412;-1.328;2022-08-19T09:14:46;24.00;99.90
22364;DHT22;11349;53.412;-1.328;2022-08-19T09:17:14;24.20;99.90
22364;DHT22;11349;53.412;-1.328;2022-08-19T09:20:03;24.00;99.90
22364;DHT22;11349;53.412;-1.328;2022-08-19T09:22:34;24.00;99.90
22364;DHT22;11349;53.412;-1.328;2022-08-19T09:25:01;24.00;99.90
22364;DHT22;11349;53.412;-1.328;2022-08-19T09:27:28;23.50;1.00
22364;DHT22;11349;53.412;-1.328;2022-08-19T09:29:54;23.80;99.90
22364;DHT22;11349;53.412;-1.328;2022-08-19T09:32:21;23.70;90.70
22364;DHT22;11349;53.412;-1.328;2022-08-19T09:34:47;23.30;13.90
22364;DHT22;11349;53.412;-1.328;2022-08-19T09:37:14;23.10;92.40
22364;DHT22;11349;53.412;-1.328;2022-08-19T09:39:40;23.30;1.00
22364;DHT22;11349;53.412;-1.328;2022-08-19T09:42:08;23.70;1.00
22364;DHT22;11349;53.412;-1.328;2022-08-19T09:44:42;24.00;99.90
22364;DHT22;11349;53.412;-1.328;2022-08-19T09:47:10;23.80;1.00
22364;DHT22;11349;53.412;-1.328;2022-08-19T09:49:37;23.60;99.90
22364;DHT22;11349;53.412;-1.328;2022-08-19T09:52:08;23.40;93.30
22364;DHT22;11349;53.412;-1.328;2022-08-19T09:54:35;23.30;99.90
22364;DHT22;11349;53.412;-1.328;2022-08-19T09:57:01;23.30;1.00
22364;DHT22;11349;53.412;-1.328;2022-08-19T09:59:27;23.30;99.90
22364;DHT22;11349;53.412;-1.328;2022-08-19T10:01:54;23.40;1.00
22364;DHT22;11349;53.412;-1.328;2022-08-19T10:04:20;23.30;1.00
22364;DHT22;11349;53.412;-1.328;2022-08-19T10:06:48;23.40;99.90
22364;DHT22;11349;53.412;-1.328;2022-08-19T10:09:16;23.30;1.00
22364;DHT22;11349;53.412;-1.328;2022-08-19T10:11:44;23.40;1.00
22364;DHT22;11349;53.412;-1.328;2022-08-19T10:14:13;23.10;99.90
22364;DHT22;11349;53.412;-1.328;2022-08-19T10:16:40;22.90;99.90
22364;DHT22;11349;53.412;-1.328;2022-08-19T10:19:07;22.80;1.00
22364;DHT22;11349;53.412;-1.328;2022-08-19T10:21:35;22.90;99.90
22364;DHT22;11349;53.412;-1.328;2022-08-19T10:24:04;23.00;48.70
22364;DHT22;11349;53.412;-1.328;2022-08-19T10:26:33;22.90;1.00
22364;DHT22;11349;53.412;-1.328;2022-08-19T10:29:01;22.80;14.70
22364;DHT22;11349;53.412;-1.328;2022-08-19T10:31:30;22.70;99.90
22364;DHT22;11349;53.412;-1.328;2022-08-19T10:33:57;22.90;1.00
22364;DHT22;11349;53.412;-1.328;2022-08-19T10:36:29;22.90;99.90
22364;DHT22;11349;53.412;-1.328;2022-08-19T10:38:57;23.00;99.90
22364;DHT22;11349;53.412;-1.328;2022-08-19T10:41:28;22.90;99.90
22364;DHT22;11349;53.412;-1.328;2022-08-19T10:43:57;22.90;99.90
22364;DHT22;11349;53.412;-1.328;2022-08-19T10:46:25;23.00;42.90
22364;DHT22;11349;53.412;-1.328;2022-08-19T10:48:52;22.90;99.90
22364;DHT22;11349;53.412;-1.328;2022-08-19T10:51:19;22.90;99.90
22364;DHT22;11349;53.412;-1.328;2022-08-19T10:54:04;22.80;1.00
22364;DHT22;11349;53.412;-1.328;2022-08-19T10:56:31;22.90;99.90
22364;DHT22;11349;53.412;-1.328;2022-08-19T10:59:21;22.90;99.90
22364;DHT22;11349;53.412;-1.328;2022-08-19T11:01:48;22.70;99.90
22364;DHT22;11349;53.412;-1.328;2022-08-19T11:04:14;22.70;99.90
22364;DHT22;11349;53.412;-1.328;2022-08-19T11:06:47;22.90;91.50
22364;DHT22;11349;53.412;-1.328;2022-08-19T11:09:19;22.70;1.00
22364;DHT22;11349;53.412;-1.328;2022-08-19T11:11:46;22.70;99.90
22364;DHT22;11349;53.412;-1.328;2022-08-19T11:14:15;22.80;1.00
22364;DHT22;11349;53.412;-1.328;2022-08-19T11:16:43;22.90;99.90
22364;DHT22;11349;53.412;-1.328;2022-08-19T11:19:10;22.90;1.00
22364;DHT22;11349;53.412;-1.328;2022-08-19T11:21:40;22.80;99.90
22364;DHT22;11349;53.412;-1.328;2022-08-19T11:24:10;22.70;99.90
22364;DHT22;11349;53.412;-1.328;2022-08-19T11:26:38;22.70;1.00
22364;DHT22;11349;53.412;-1.328;2022-08-19T11:29:06;22.60;99.90
22364;DHT22;11349;53.412;-1.328;2022-08-19T11:31:37;22.60;1.00
22364;DHT22;11349;53.412;-1.328;2022-08-19T11:34:08;22.70;99.90
22364;DHT22;11349;53.412;-1.328;2022-08-19T11:36:36;22.80;99.90
22364;DHT22;11349;53.412;-1.328;2022-08-19T11:39:05;22.80;1.00
22364;DHT22;11349;53.412;-1.328;2022-08-19T11:41:31;22.70;99.90
22364;DHT22;11349;53.412;-1.328;2022-08-19T11:43:57;22.80;99.90
22364;DHT22;11349;53.412;-1.328;2022-08-19T11:46:24;22.70;10.80
22364;DHT22;11349;53.412;-1.328;2022-08-19T11:48:50;22.70;1.00
22364;DHT22;11349;53.412;-1.328;2022-08-19T11:51:20;22.60;99.90
22364;DHT22;11349;53.412;-1.328;2022-08-19T11:53:47;22.70;99.90
22364;DHT22;11349;53.412;-1.328;2022-08-19T11:56:14;22.70;99.90
22364;DHT22;11349;53.412;-1.328;2022-08-19T11:58:40;22.70;99.90
22364;DHT22;11349;53.412;-1.328;2022-08-19T12:01:10;22.70;99.90
22364;DHT22;11349;53.412;-1.328;2022-08-19T12:03:38;22.80;99.90
22364;DHT22;11349;53.412;-1.328;2022-08-19T12:06:05;22.80;1.00
22364;DHT22;11349;53.412;-1.328;2022-08-19T12:08:31;22.80;99.90
22364;DHT22;11349;53.412;-1.328;2022-08-19T12:10:57;22.90;99.90
22364;DHT22;11349;53.412;-1.328;2022-08-19T12:13:27;22.90;99.90
22364;DHT22;11349;53.412;-1.328;2022-08-19T12:15:53;22.90;1.00
22364;DHT22;11349;53.412;-1.328;2022-08-19T12:18:19;22.90;35.70
22364;DHT22;11349;53.412;-1.328;2022-08-19T12:20:45;22.90;99.90
22364;DHT22;11349;53.412;-1.328;2022-08-19T12:23:13;22.80;99.90
22364;DHT22;11349;53.412;-1.328;2022-08-19T12:25:45;22.90;1.00
22364;DHT22;11349;53.412;-1.328;2022-08-19T12:28:16;22.80;99.90
22364;DHT22;11349;53.412;-1.328;2022-08-19T12:30:42;22.80;99.90
22364;DHT22;11349;53.412;-1.328;2022-08-19T12:33:08;22.90;99.90
22364;DHT22;11349;53.412;-1.328;2022-08-19T12:35:34;22.90;1.00
22364;DHT22;11349;53.412;-1.328;2022-08-19T12:38:00;22.80;1.00
22364;DHT22;11349;53.412;-1.328;2022-08-19T12:40:28;22.80;1.00
22364;DHT22;11349;53.412;-1.328;2022-08-19T12:42:54;22.90;1.00
22364;DHT22;11349;53.412;-1.328;2022-08-19T12:45:20;22.90;1.00
22364;DHT22;11349;53.412;-1.328;2022-08-19T12:47:48;22.90;99.90
22364;DHT22;11349;53.412;-1.328;2022-08-19T12:50:13;22.90;1.00
22364;DHT22;11349;53.412;-1.328;2022-08-19T12:52:39;22.80;99.90
22364;DHT22;11349;53.412;-1.328;2022-08-19T12:55:08;22.80;99.90
22364;DHT22;11349;53.412;-1.328;2022-08-19T12:57:34;22.70;1.10
22364;DHT22;11349;53.412;-1.328;2022-08-19T13:00:08;22.70;99.90
22364;DHT22;11349;53.412;-1.328;2022-08-19T13:02:40;22.80;99.90
22364;DHT22;11349;53.412;-1.328;2022-08-19T13:05:09;22.70;86.30
22364;DHT22;11349;53.412;-1.328;2022-08-19T13:07:38;22.80;99.90
22364;DHT22;11349;53.412;-1.328;2022-08-19T13:10:10;22.70;99.90
22364;DHT22;11349;53.412;-1.328;2022-08-19T13:12:38;22.70;1.00
22364;DHT22;11349;53.412;-1.328;2022-08-19T13:15:04;22.80;98.50
22364;DHT22;11349;53.412;-1.328;2022-08-19T13:17:33;22.80;99.90
22364;DHT22;11349;53.412;-1.328;2022-08-19T13:19:59;22.90;1.00
22364;DHT22;11349;53.412;-1.328;2022-08-19T13:22:25;22.80;1.00
22364;DHT22;11349;53.412;-1.328;2022-08-19T13:24:51;22.90;99.90
22364;DHT22;11349;53.412;-1.328;2022-08-19T13:27:16;23.00;99.90
22364;DHT22;11349;53.412;-1.328;2022-08-19T13:29:42;23.00;1.00
22364;DHT22;11349;53.412;-1.328;2022-08-19T13:32:28;23.00;99.90
22364;DHT22;11349;53.412;-1.328;2022-08-19T13:35:12;22.90;1.00
22364;DHT22;11349;53.412;-1.328;2022-08-19T13:37:38;23.00;99.90
22364;DHT22;11349;53.412;-1.328;2022-08-19T13:40:09;23.00;62.50
22364;DHT22;11349;53.412;-1.328;2022-08-19T13:42:41;23.00;99.90
22364;DHT22;11349;53.412;-1.328;2022-08-19T13:45:08;23.00;99.90
22364;DHT22;11349;53.412;-1.328;2022-08-19T13:47:35;23.20;99.90
22364;DHT22;11349;53.412;-1.328;2022-08-19T13:50:03;23.20;99.90
22364;DHT22;11349;53.412;-1.328;2022-08-19T13:52:29;23.10;99.90
22364;DHT22;11349;53.412;-1.328;2022-08-19T13:54:55;23.00;99.90
22364;DHT22;11349;53.412;-1.328;2022-08-19T13:57:22;23.10;1.00
22364;DHT22;11349;53.412;-1.328;2022-08-19T13:59:48;23.00;99.90
22364;DHT22;11349;53.412;-1.328;2022-08-19T14:02:14;23.10;99.90
22364;DHT22;11349;53.412;-1.328;2022-08-19T14:04:40;23.00;1.00
22364;DHT22;11349;53.412;-1.328;2022-08-19T14:07:06;23.10;99.90
22364;DHT22;11349;53.412;-1.328;2022-08-19T14:09:32;23.00;1.00
22364;DHT22;11349;53.412;-1.328;2022-08-19T14:11:58;23.00;99.90
22364;DHT22;11349;53.412;-1.328;2022-08-19T14:14:24;23.00;44.60
22364;DHT22;11349;53.412;-1.328;2022-08-19T14:16:50;23.00;1.00
22364;DHT22;11349;53.412;-1.328;2022-08-19T14:19:17;22.90;99.90
22364;DHT22;11349;53.412;-1.328;2022-08-19T14:21:43;23.00;99.90
22364;DHT22;11349;53.412;-1.328;2022-08-19T14:24:09;22.90;99.90
22364;DHT22;11349;53.412;-1.328;2022-08-19T14:26:35;22.90;99.90
22364;DHT22;11349;53.412;-1.328;2022-08-19T14:29:01;22.90;99.90
22364;DHT22;11349;53.412;-1.328;2022-08-19T14:31:27;23.10;99.90
22364;DHT22;11349;53.412;-1.328;2022-08-19T14:33:53;23.00;1.00
22364;DHT22;11349;53.412;-1.328;2022-08-19T14:36:19;23.00;99.90
22364;DHT22;11349;53.412;-1.328;2022-08-19T14:38:47;22.90;1.00
22364;DHT22;11349;53.412;-1.328;2022-08-19T14:41:15;23.00;1.00
22364;DHT22;11349;53.412;-1.328;2022-08-19T14:43:43;23.10;99.90
22364;DHT22;11349;53.412;-1.328;2022-08-19T14:46:15;23.00;99.90
22364;DHT22;11349;53.412;-1.328;2022-08-19T14:48:42;22.90;99.90
22364;DHT22;11349;53.412;-1.328;2022-08-19T14:51:08;22.80;99.90
22364;DHT22;11349;53.412;-1.328;2022-08-19T14:53:35;23.00;1.00
22364;DHT22;11349;53.412;-1.328;2022-08-19T14:56:01;22.80;1.00
22364;DHT22;11349;53.412;-1.328;2022-08-19T14:58:28;22.80;99.90
22364;DHT22;11349;53.412;-1.328;2022-08-19T15:00:53;22.70;1.00
22364;DHT22;11349;53.412;-1.328;2022-08-19T15:03:19;22.70;99.90
22364;DHT22;11349;53.412;-1.328;2022-08-19T15:05:45;22.70;99.90
22364;DHT22;11349;53.412;-1.328;2022-08-19T15:08:11;22.70;99.90
22364;DHT22;11349;53.412;-1.328;2022-08-19T15:10:39;22.80;99.90
22364;DHT22;11349;53.412;-1.328;2022-08-19T15:13:04;22.70;1.00
22364;DHT22;11349;53.412;-1.328;2022-08-19T15:15:31;22.90;32.60
22364;DHT22;11349;53.412;-1.328;2022-08-19T15:17:57;22.80;99.90
22364;DHT22;11349;53.412;-1.328;2022-08-19T15:20:28;22.70;99.90
22364;DHT22;11349;53.412;-1.328;2022-08-19T15:22:54;22.70;99.90
22364;DHT22;11349;53.412;-1.328;2022-08-19T15:25:20;22.80;1.00
22364;DHT22;11349;53.412;-1.328;2022-08-19T15:27:47;22.60;99.90
22364;DHT22;11349;53.412;-1.328;2022-08-19T15:30:23;22.50;99.90
22364;DHT22;11349;53.412;-1.328;2022-08-19T15:32:49;22.60;96.90
22364;DHT22;11349;53.412;-1.328;2022-08-19T15:35:16;22.50;1.00
22364;DHT22;11349;53.412;-1.328;2022-08-19T15:37:44;22.40;1.00